Nearby METAR Reports

 

KPAE - Everett, Washington, USA
Distance from station: NW 15mi, 25km
Updated: 08/22/2019 4:53pm
Clear
Clear
 Wind from W
Wind: W 6 mph , 9 km/h
Temperature: 70°F , 21°C
Dew Point: 50°F , 10°C
Humidity: 50%
Barometer: 30.08 inHg , 1018.6 hPa
Clouds: Clear
Visibility: 10 miles , 16 km
2019/08/22 23:53 KPAE 222353Z 28005KT 10SM CLR 21/10 A3008 RMK AO2 SLP184 T02060100 10217 20172 56010
KBFI - Seattle/Boeing, Washington, USA
Distance from station: SW 20mi, 31km
Updated: 08/22/2019 4:53pm
Mostly cloudy
Mostly cloudy
 Wind from varies
Wind: varies 5 mph , 7 km/h
Temperature: 72°F , 22°C
Dew Point: 54°F , 12°C
Humidity: 53%
Barometer: 30.06 inHg , 1017.9 hPa
Clouds: Mostly cloudy
Visibility: 10 miles , 16 km
Cloud details: Mostly cloudy 3700 ft
2019/08/22 23:53 KBFI 222353Z VRB04KT 10SM BKN037 22/12 A3006 RMK AO2 SLP178 T02220117 10228 20161 56014
KSEA - Seattle/Metro, Washington, USA
Distance from station: SSW 25mi, 41km
Updated: 08/22/2019 4:53pm
Partly cloudy
Partly cloudy
 Wind from WSW
Wind: WSW 7 mph , 11 km/h
Temperature: 70°F , 21°C
Dew Point: 52°F , 11°C
Humidity: 53%
Barometer: 30.07 inHg , 1018.3 hPa
Clouds: Partly cloudy
Visibility: 10 miles , 16 km
Cloud details: Partly cloudy 2900 ft
Partly cloudy 25000 ft
2019/08/22 23:53 KSEA 222353Z 24006KT 10SM SCT029 SCT250 21/11 A3007 RMK AO2 SLP189 T02110106 10217 20150 56014
 
KAWO - Arlington Muni, Washington, USA
Distance from station: NNW 28mi, 46km
Updated: 08/22/2019 4:56pm
Clear
Clear
 Wind from NNW
Wind: NNW 8 mph , 13 km/h
Temperature: 72°F , 22°C
Dew Point: 54°F , 12°C
Humidity: 53%
Barometer: 30.06 inHg , 1017.9 hPa
Clouds: Clear
Visibility: 10 miles , 16 km
2019/08/22 23:56 KAWO 222356Z AUTO 34007KT 10SM CLR 22/12 A3006 RMK AO2 SLP182 T02220122 10228 20172 56012
KPWT - Bremerton Ntnl, Washington, USA
Distance from station: WSW 38mi, 61km
Updated: 08/22/2019 4:56pm
Clear
Clear
 Wind from calm
Wind: Calm
Temperature: 66°F , 19°C
Dew Point: 57°F , 14°C
Humidity: 73%
Barometer: 30.07 inHg , 1018.3 hPa
Clouds: Clear
Visibility: 10 miles , 16 km
2019/08/22 23:56 KPWT 222356Z AUTO 00000KT 10SM CLR 19/14 A3007 RMK AO2 SLP199 T01940139 10206 20161 56010
KTIW - Tacoma, Washington, USA
Distance from station: SW 43mi, 69km
Updated: 08/22/2019 4:53pm
Partly cloudy
Partly cloudy
 Wind from S
Wind: S 5 mph , 7 km/h
Temperature: 66°F , 19°C
Dew Point: 54°F , 12°C
Humidity: 64%
Barometer: 30.07 inHg , 1018.3 hPa
Clouds: Partly cloudy
Visibility: 10 miles , 16 km
Cloud details: Partly cloudy 2000 ft
2019/08/22 23:53 KTIW 222353Z 17004KT 10SM SCT020 19/12 A3007 RMK AO2 SLP181 T01940122 10194 20133 56014
 
KPLU - Puyallup/Thun, Washington, USA
Distance from station: SSW 47mi, 76km
Updated: 08/22/2019 4:55pm
Mostly cloudy
Mostly cloudy
 Wind from varies
Wind: varies 3 mph , 6 km/h
Temperature: 70°F , 21°C
Dew Point: 57°F , 14°C
Humidity: 64%
Barometer: 30.08 inHg , 1018.6 hPa
Clouds: Mostly cloudy
Visibility: 10 miles , 16 km
Cloud details: Mostly cloudy 2700 ft
Mostly cloudy 3200 ft
2019/08/22 23:55 KPLU 222355Z AUTO VRB03KT 10SM BKN027 BKN032 21/14 A3008 RMK AO2
KSMP - Stampede Pass, Washington, USA
Distance from station: SE 47mi, 76km
Updated: 08/22/2019 4:56pm
Few Clouds
Few Clouds
 Wind from SW
Wind: SW 8 mph , 13 km/h
Temperature: 57°F , 14°C
Dew Point: 48°F , 9°C
Humidity: 72%
Barometer: 30.10 inHg , 1019.3 hPa
Clouds: Few Clouds
Visibility: 10 miles , 16 km
Cloud details: Few Clouds 1700 ft
2019/08/22 23:56 KSMP 222356Z AUTO 23007KT 150V290 10SM FEW017 14/09 A3010 RMK AO2 SLP182 T01390094 10156 20111 55003
KNUW - Whidbey Is. Nas, Washington, USA
Distance from station: NW 49mi, 79km
Updated: 08/22/2019 4:56pm
Clear
Clear
 Wind from W
Wind: W 7 mph , 11 km/h
Temperature: 68°F , 20°C
Dew Point: 52°F , 11°C
Humidity: 56%
Barometer: 30.10 inHg , 1019.3 hPa
Clouds: Clear
Visibility: 10 miles , 16 km
2019/08/22 23:56 KNUW 222356Z 28006KT 10SM CLR 20/11 A3010 RMK AO2 SLP191 T02000106 10211 20178 56012 $
 
KBVS - Burlington/Mt V, Washington, USA
Distance from station: NNW 51mi, 83km
Updated: 08/22/2019 4:55pm
Clear
Clear
 Wind from NNW
Wind: NNW 6 mph , 9 km/h
Temperature: 75°F , 24°C
Dew Point: 52°F , 11°C
Humidity: 44%
Barometer: 30.06 inHg , 1017.9 hPa
Clouds: Clear
Visibility: 9 miles , 14 km
2019/08/22 23:55 KBVS 222355Z AUTO 33005KT 9SM CLR 24/11 A3006 RMK A01
KSHN - Shelton, Washington, USA
Distance from station: SW 63mi, 101km
Updated: 08/22/2019 4:53pm
Overcast
Overcast
 Wind from calm
Wind: Calm
Temperature: 72°F , 22°C
Dew Point: 55°F , 13°C
Humidity: 57%
Barometer: 30.04 inHg , 1017.3 hPa
Clouds: Overcast
Visibility: 10 miles , 16 km
Cloud details: Partly cloudy 3200 ft
Overcast 4300 ft
2019/08/22 23:53 KSHN 222353Z AUTO 00000KT 10SM SCT032 OVC043 22/13 A3004 RMK AO2 SLP173 T02170128 10217 20161 58011
KOLM - Olympia, Washington, USA
Distance from station: SW 68mi, 110km
Updated: 08/22/2019 4:54pm
Few Clouds
Few Clouds
 Wind from E
Wind: E 5 mph , 7 km/h
Temperature: 72°F , 22°C
Dew Point: 54°F , 12°C
Humidity: 53%
Barometer: 30.07 inHg , 1018.3 hPa
Clouds: Few Clouds
Visibility: 10 miles , 16 km
Cloud details: Few Clouds 3200 ft
2019/08/22 23:54 KOLM 222354Z 09004KT 10SM FEW032 22/12 A3007 RMK AO2 SLP181 T02170122 10217 20156 56013
 
KCLM - Port Angeles, Washington, USA
Distance from station: WNW 72mi, 115km
Updated: 08/22/2019 4:53pm
Clear
Clear
 Wind from varies
Wind: varies 6 mph , 9 km/h
Temperature: 66°F , 19°C
Dew Point: 48°F , 9°C
Humidity: 52%
Barometer: 30.07 inHg , 1018.3 hPa
Clouds: Clear
Visibility: 10 miles , 16 km
2019/08/22 23:53 KCLM 222353Z AUTO VRB05KT 10SM CLR 19/09 A3007 RMK AO2 SLP182 T01940089 10200 20161 56011
CWYJ - Victoria Univ, British Columbia, Canada
Distance from station: NW 75mi, 121km
Updated: 08/22/2019 5:00pm

 Wind from ESE
Wind: ESE 2 mph , 4 km/h
Temperature: 70°F , 21°C
Dew Point: 52°F , 11°C
Humidity: 53%
2019/08/23 00:00 CWYJ 230000Z AUTO 12002KT 21/11 RMK AO1 SLP177 T02060107 57013
KBLI - Bellingham, Washington, USA
Distance from station: NNW 75mi, 121km
Updated: 08/22/2019 4:53pm
Clear
Clear
 Wind from varies
Wind: varies 3 mph , 6 km/h
Temperature: 70°F , 21°C
Dew Point: 54°F , 12°C
Humidity: 57%
Barometer: 30.05 inHg , 1017.6 hPa
Clouds: Clear
Visibility: 10 miles , 16 km
2019/08/22 23:53 KBLI 222353Z VRB03KT 10SM CLR 21/12 A3005 RMK AO2 SLP182 T02110117 10217 20183 56013